createdAt,value
2022-12-24T00:01:47.701Z,99342.22
2022-12-24T00:04:36.159Z,99347.28
2022-12-24T00:07:24.603Z,99346.44
2022-12-24T00:10:13.086Z,99346.63
2022-12-24T00:13:01.498Z,99342.47
2022-12-24T00:15:50.028Z,99345.88
2022-12-24T00:18:45.499Z,99345.06
2022-12-24T00:21:34.879Z,99353.72
2022-12-24T00:24:23.282Z,99360.88
2022-12-24T00:27:11.721Z,99359.19
2022-12-24T00:30:00.172Z,99376.69
2022-12-24T00:32:48.728Z,99367.25
2022-12-24T00:35:38.827Z,99367.25
2022-12-24T00:38:27.238Z,99378.41
2022-12-24T00:41:25.888Z,99377.50
2022-12-24T00:44:14.637Z,99376.47
2022-12-24T00:47:06.828Z,99392.84
2022-12-24T00:50:00.153Z,99400.59
2022-12-24T00:52:49.952Z,99398.09
2022-12-24T00:55:38.851Z,99397.19
2022-12-24T00:58:27.217Z,99393.03
2022-12-24T01:01:15.826Z,99400.97
2022-12-24T01:04:22.111Z,99389.16
2022-12-24T01:07:10.521Z,99397.91
2022-12-24T01:10:00.349Z,99397.09
2022-12-24T01:12:48.917Z,99410.03
2022-12-24T01:15:38.524Z,99414.56
2022-12-24T01:18:26.981Z,99418.25
2022-12-24T01:21:15.580Z,99420.09
2022-12-24T01:24:04.448Z,99429.63
2022-12-24T01:26:54.198Z,99433.94
2022-12-24T01:29:42.600Z,99441.81
2022-12-24T01:32:31.002Z,99453.00
2022-12-24T01:35:19.554Z,99447.00
2022-12-24T01:38:08.012Z,99456.50
2022-12-24T01:41:13.813Z,99459.06
2022-12-24T01:44:33.108Z,99472.88
2022-12-24T01:47:26.865Z,99473.69
2022-12-24T01:50:17.673Z,99473.69
2022-12-24T01:53:06.186Z,99486.72
2022-12-24T01:55:54.636Z,99492.16
2022-12-24T01:58:44.738Z,99493.25
2022-12-24T02:01:34.566Z,99502.09
2022-12-24T02:04:38.469Z,99502.38
2022-12-24T02:07:26.863Z,99504.19
2022-12-24T02:10:15.655Z,99507.66
2022-12-24T02:13:04.118Z,99518.91
2022-12-24T02:16:02.858Z,99522.31
2022-12-24T02:18:58.253Z,99526.59
2022-12-24T02:21:51.355Z,99526.66
2022-12-24T02:24:58.891Z,99535.50
2022-12-24T02:27:55.758Z,99538.28
2022-12-24T02:30:47.042Z,99541.69
2022-12-24T02:33:37.224Z,99550.38
2022-12-24T02:36:28.311Z,99522.69
2022-12-24T02:39:19.474Z,99531.34
2022-12-24T02:42:07.983Z,99536.44
2022-12-24T02:44:59.320Z,99523.50
2022-12-24T02:47:49.062Z,99519.91
2022-12-24T02:50:37.448Z,99511.97
2022-12-24T02:53:25.955Z,99523.25
2022-12-24T02:56:40.802Z,99514.75
2022-12-24T03:00:01.673Z,99514.91
2022-12-24T03:03:09.644Z,99517.66
2022-12-24T03:06:01.813Z,99529.84
2022-12-24T03:08:52.861Z,99539.34
2022-12-24T03:11:43.276Z,99552.28
2022-12-24T03:14:31.735Z,99551.66
2022-12-24T03:17:20.159Z,99553.38
2022-12-24T03:20:11.326Z,99559.47
2022-12-24T03:22:59.735Z,99557.91
2022-12-24T03:25:48.214Z,99565.81
2022-12-24T03:28:37.765Z,99551.22
2022-12-24T03:31:26.248Z,99552.88
2022-12-24T03:34:15.044Z,99557.91
2022-12-24T03:37:04.981Z,99560.38
2022-12-24T03:39:53.810Z,99567.25
2022-12-24T03:42:42.204Z,99570.56
2022-12-24T03:45:30.673Z,99567.81
2022-12-24T03:48:19.106Z,99564.22
2022-12-24T03:51:08.089Z,99565.91
2022-12-24T03:53:58.464Z,99562.31
2022-12-24T03:56:46.936Z,99550.19
2022-12-24T03:59:35.347Z,99550.19
2022-12-24T04:02:23.888Z,99571.81
2022-12-24T04:05:14.853Z,99565.16
2022-12-24T04:08:03.321Z,99564.41
2022-12-24T04:10:53.090Z,99571.47
2022-12-24T04:13:41.503Z,99577.66
2022-12-24T04:16:29.982Z,99576.75
2022-12-24T04:19:18.542Z,99573.41
2022-12-24T04:22:06.897Z,99573.41
2022-12-24T04:24:55.394Z,99577.84
2022-12-24T04:27:45.150Z,99578.91
2022-12-24T04:30:33.597Z,99582.59
2022-12-24T04:33:22.101Z,99586.09
2022-12-24T04:36:13.342Z,99586.19
2022-12-24T04:39:01.773Z,99587.00
2022-12-24T04:41:50.187Z,99587.00
2022-12-24T04:44:39.963Z,99588.50
2022-12-24T04:47:28.336Z,99596.09
2022-12-24T04:50:16.922Z,99598.44
2022-12-24T04:53:05.308Z,99602.63
2022-12-24T04:55:53.739Z,99599.09
2022-12-24T04:58:42.202Z,99603.44
2022-12-24T05:01:33.727Z,99603.63
2022-12-24T05:04:22.271Z,99601.03
2022-12-24T05:07:10.686Z,99607.94
2022-12-24T05:09:59.099Z,99612.22
2022-12-24T05:12:47.502Z,99603.53
2022-12-24T05:15:35.959Z,99607.78
2022-12-24T05:18:26.192Z,99605.19
2022-12-24T05:21:16.774Z,99608.53
2022-12-24T05:24:23.025Z,99607.78
2022-12-24T05:27:11.427Z,99610.28
2022-12-24T05:30:00.237Z,99617.19
2022-12-24T05:32:48.674Z,99616.31
2022-12-24T05:35:38.393Z,99611.28
2022-12-24T05:38:26.806Z,99606.22
2022-12-24T05:41:15.248Z,99603.63
2022-12-24T05:44:03.684Z,99620.97
2022-12-24T05:46:52.086Z,99624.53
2022-12-24T05:49:40.501Z,99626.47
2022-12-24T05:52:30.658Z,99631.72
2022-12-24T05:55:19.202Z,99630.88
2022-12-24T05:58:07.628Z,99637.72
2022-12-24T06:00:56.023Z,99633.41
2022-12-24T06:03:44.527Z,99635.06
2022-12-24T06:06:32.883Z,99630.81
2022-12-24T06:09:22.691Z,99640.28
2022-12-24T06:12:11.091Z,99636.13
2022-12-24T06:14:59.464Z,99633.53
2022-12-24T06:17:48.108Z,99636.38
2022-12-24T06:20:36.503Z,99643.31
2022-12-24T06:23:25.365Z,99636.44
2022-12-24T06:26:16.415Z,99645.97
2022-12-24T06:29:04.797Z,99646.06
2022-12-24T06:31:53.254Z,99654.66
2022-12-24T06:34:41.731Z,99656.53
2022-12-24T06:37:30.472Z,99666.00
2022-12-24T06:40:19.054Z,99666.81
2022-12-24T06:43:08.846Z,99665.06
2022-12-24T06:45:57.414Z,99678.00
2022-12-24T06:48:46.295Z,99676.34
2022-12-24T06:51:34.742Z,99680.56
2022-12-24T06:54:23.148Z,99683.16
2022-12-24T06:57:11.536Z,99678.81
2022-12-24T07:00:01.641Z,99689.00
2022-12-24T07:02:50.140Z,99688.91
2022-12-24T07:05:18.554Z,99700.19
2022-12-24T07:07:47.282Z,99702.59
2022-12-24T07:10:20.733Z,99706.88
2022-12-24T07:12:49.014Z,99718.88
2022-12-24T07:15:18.652Z,99717.22
2022-12-24T07:17:46.849Z,99718.78
2022-12-24T07:20:15.562Z,99710.88
2022-12-24T07:22:43.786Z,99707.28
2022-12-24T07:25:12.300Z,99717.56
2022-12-24T07:27:40.541Z,99714.97
2022-12-24T07:30:10.723Z,99713.31
2022-12-24T07:32:40.241Z,99715.03
2022-12-24T07:35:09.306Z,99731.47
2022-12-24T07:37:37.498Z,99731.56
2022-12-24T07:40:09.619Z,99732.31
2022-12-24T07:42:37.773Z,99734.00
2022-12-24T07:45:07.962Z,99735.72
2022-12-24T07:47:36.492Z,99735.72
2022-12-24T07:50:07.404Z,99741.75
2022-12-24T07:52:36.320Z,99735.66
2022-12-24T07:55:04.587Z,99741.66
2022-12-24T07:57:32.800Z,99744.25
2022-12-24T08:00:00.950Z,99743.41
2022-12-24T08:02:29.339Z,99742.59
2022-12-24T08:04:57.681Z,99749.41
2022-12-24T08:07:27.161Z,99752.84
2022-12-24T08:09:55.314Z,99744.25
2022-12-24T08:12:24.445Z,99752.75
2022-12-24T08:14:52.608Z,99751.84
2022-12-24T08:17:20.729Z,99751.84
2022-12-24T08:19:48.858Z,99751.84
2022-12-24T08:22:17.080Z,99753.63
2022-12-24T08:24:46.550Z,99760.44
2022-12-24T08:27:14.677Z,99768.28
2022-12-24T08:29:42.874Z,99763.19
2022-12-24T08:32:11.097Z,99758.03
2022-12-24T08:34:39.285Z,99769.28
2022-12-24T08:37:07.407Z,99757.16
2022-12-24T08:39:35.576Z,99757.09
2022-12-24T08:42:05.319Z,99753.75
2022-12-24T08:44:33.485Z,99759.75
2022-12-24T08:47:01.596Z,99764.78
2022-12-24T08:49:29.727Z,99770.63
2022-12-24T08:51:57.889Z,99773.13
2022-12-24T08:54:27.154Z,99769.47
2022-12-24T08:56:55.291Z,99771.88
2022-12-24T08:59:24.956Z,99769.91
2022-12-24T09:01:53.181Z,99777.34
2022-12-24T09:04:21.402Z,99778.69
2022-12-24T09:06:49.521Z,99785.22
2022-12-24T09:09:17.649Z,99784.72
2022-12-24T09:11:46.161Z,99784.03
2022-12-24T09:14:14.395Z,99794.81
2022-12-24T09:16:44.021Z,99796.19
2022-12-24T09:19:12.142Z,99806.97
2022-12-24T09:21:40.281Z,99811.56
2022-12-24T09:24:09.051Z,99807.13
2022-12-24T09:26:37.189Z,99799.41
2022-12-24T09:29:05.348Z,99811.34
2022-12-24T09:31:33.633Z,99807.34
2022-12-24T09:34:03.199Z,99811.31
2022-12-24T09:36:31.369Z,99819.31
2022-12-24T09:39:00.552Z,99822.00
2022-12-24T09:41:39.525Z,99829.13
2022-12-24T09:44:25.383Z,99842.22
2022-12-24T09:46:53.642Z,99841.72
2022-12-24T09:49:26.353Z,99832.38
2022-12-24T09:51:56.987Z,99842.72
2022-12-24T09:54:26.979Z,99845.13
2022-12-24T09:56:55.364Z,99852.91
2022-12-24T09:59:25.314Z,99852.19
2022-12-24T10:01:55.036Z,99852.09
2022-12-24T10:04:28.444Z,99850.25
2022-12-24T10:07:02.055Z,99857.94
2022-12-24T10:09:34.026Z,99857.13
2022-12-24T10:12:05.790Z,99859.69
2022-12-24T10:14:45.691Z,99871.47
2022-12-24T10:17:37.760Z,99872.53
2022-12-24T10:20:24.034Z,99873.47
2022-12-24T10:22:56.790Z,99874.25
2022-12-24T10:25:27.572Z,99875.63
2022-12-24T10:27:56.460Z,99869.44
2022-12-24T10:30:24.770Z,99867.28
2022-12-24T10:32:54.872Z,99867.94
2022-12-24T10:35:27.778Z,99870.91
2022-12-24T10:37:58.000Z,99876.09
2022-12-24T10:40:32.712Z,99878.13
2022-12-24T10:43:00.841Z,99869.59
2022-12-24T10:45:40.513Z,99862.59
2022-12-24T10:48:11.607Z,99870.03
2022-12-24T10:50:47.176Z,99867.91
2022-12-24T10:53:19.084Z,99868.00
2022-12-24T10:55:48.738Z,99871.78
2022-12-24T10:58:18.658Z,99867.63
2022-12-24T11:00:51.174Z,99885.50
2022-12-24T11:03:25.274Z,99879.31
2022-12-24T11:06:12.281Z,99876.44
2022-12-24T11:08:42.189Z,99868.81
2022-12-24T11:11:12.642Z,99864.69
2022-12-24T11:13:41.981Z,99864.41
2022-12-24T11:16:18.253Z,99867.66
2022-12-24T11:18:51.381Z,99864.88
2022-12-24T11:21:23.858Z,99868.75
2022-12-24T11:23:54.246Z,99863.03
2022-12-24T11:26:26.882Z,99872.25
2022-12-24T11:29:16.446Z,99876.13
2022-12-24T11:31:45.134Z,99868.66
2022-12-24T11:34:24.803Z,99865.69
2022-12-24T11:36:55.409Z,99855.66
2022-12-24T11:39:25.604Z,99857.69
2022-12-24T11:41:54.696Z,99856.84
2022-12-24T11:44:26.609Z,99853.69
2022-12-24T11:46:57.053Z,99860.72
2022-12-24T11:49:28.347Z,99871.19
2022-12-24T11:52:20.532Z,99868.75
2022-12-24T11:55:01.586Z,99860.22
2022-12-24T11:57:33.725Z,99870.78
2022-12-24T12:00:01.996Z,99868.00
2022-12-24T12:02:35.762Z,99867.91
2022-12-24T12:05:06.529Z,99860.22
2022-12-24T12:07:36.948Z,99858.72
2022-12-24T12:10:08.013Z,99862.44
2022-12-24T12:12:40.060Z,99859.16
2022-12-24T12:15:13.611Z,99857.56
2022-12-24T12:17:44.975Z,99860.00
2022-12-24T12:20:15.568Z,99858.91
2022-12-24T12:22:49.830Z,99866.50
2022-12-24T12:25:22.995Z,99863.06
2022-12-24T12:27:52.645Z,99864.09
2022-12-24T12:30:22.677Z,99867.75
2022-12-24T12:32:55.316Z,99862.91
2022-12-24T12:35:26.496Z,99866.50
2022-12-24T12:37:59.229Z,99870.13
2022-12-24T12:40:56.753Z,99872.72
2022-12-24T12:43:39.239Z,99868.28
2022-12-24T12:46:12.898Z,99873.28
2022-12-24T12:49:00.252Z,99870.03
2022-12-24T12:51:35.998Z,99879.66
2022-12-24T12:54:33.203Z,99880.66
2022-12-24T12:57:05.505Z,99876.38
2022-12-24T12:59:36.370Z,99873.91
2022-12-24T13:02:18.437Z,99866.88
2022-12-24T13:05:36.037Z,99863.44
2022-12-24T13:09:08.332Z,99867.78
2022-12-24T13:11:47.717Z,99878.41
2022-12-24T13:14:48.229Z,99881.81
2022-12-24T13:17:33.539Z,99884.66
2022-12-24T13:20:25.831Z,99888.25
2022-12-24T13:22:58.809Z,99887.25
2022-12-24T13:25:32.563Z,99894.78
2022-12-24T13:28:38.646Z,99899.13
2022-12-24T13:31:29.910Z,99902.47
2022-12-24T13:34:03.266Z,99901.72
2022-12-24T13:37:04.879Z,99903.81
2022-12-24T13:40:03.197Z,99907.41
2022-12-24T13:42:52.372Z,99900.53
2022-12-24T13:45:48.051Z,99909.41
2022-12-24T13:48:28.928Z,99905.63
2022-12-24T13:50:57.679Z,99909.63
2022-12-24T13:53:29.848Z,99906.13
2022-12-24T13:56:01.378Z,99912.16
2022-12-24T13:58:29.526Z,99906.91
2022-12-24T14:01:00.071Z,99900.88
2022-12-24T14:03:31.584Z,99906.06
2022-12-24T14:06:01.269Z,99909.56
2022-12-24T14:08:36.429Z,99902.78
2022-12-24T14:11:13.366Z,99903.69
2022-12-24T14:14:27.700Z,99914.03
2022-12-24T14:16:58.711Z,99915.06
2022-12-24T14:19:33.670Z,99921.31
2022-12-24T14:22:13.355Z,99903.13
2022-12-24T14:24:43.969Z,99908.94
2022-12-24T14:27:17.667Z,99922.78
2022-12-24T14:29:49.718Z,99933.47
2022-12-24T14:32:19.227Z,99928.59
2022-12-24T14:34:47.512Z,99921.91
2022-12-24T14:37:15.728Z,99925.44
2022-12-24T14:39:45.486Z,99921.00
2022-12-24T14:42:33.524Z,99921.44
2022-12-24T14:45:12.218Z,99920.44
2022-12-24T14:47:44.247Z,99918.53
2022-12-24T14:50:41.920Z,99924.31
2022-12-24T14:53:21.819Z,99929.34
2022-12-24T14:55:50.457Z,99928.47
2022-12-24T14:58:25.370Z,99943.03
2022-12-24T15:00:55.826Z,99943.03
2022-12-24T15:03:26.582Z,99939.53
2022-12-24T15:05:56.503Z,99934.41
2022-12-24T15:08:31.693Z,99940.47
2022-12-24T15:11:05.206Z,99932.00
2022-12-24T15:13:37.305Z,99946.53
2022-12-24T15:16:06.920Z,99946.53
2022-12-24T15:18:38.138Z,99946.59
2022-12-24T15:21:08.798Z,99954.53
2022-12-24T15:23:38.040Z,99956.38
2022-12-24T15:26:26.341Z,99951.19
2022-12-24T15:29:02.235Z,99958.13
2022-12-24T15:31:32.359Z,99972.06
2022-12-24T15:34:01.911Z,99962.59
2022-12-24T15:36:32.496Z,99968.59
2022-12-24T15:39:02.632Z,99972.97
2022-12-24T15:41:33.790Z,99977.38
2022-12-24T15:44:04.103Z,99974.88
2022-12-24T15:46:32.632Z,99981.72
2022-12-24T15:49:02.363Z,99981.72
2022-12-24T15:51:32.562Z,99973.34
2022-12-24T15:54:03.172Z,99987.81
2022-12-24T15:56:37.058Z,99992.06
2022-12-24T15:59:31.112Z,99987.81
2022-12-24T16:02:35.183Z,99991.25
2022-12-24T16:05:35.708Z,99979.44
2022-12-24T16:08:20.868Z,99980.34
2022-12-24T16:10:50.658Z,99980.34
2022-12-24T16:13:20.424Z,99988.06
2022-12-24T16:15:52.955Z,99991.41
2022-12-24T16:18:25.159Z,100000.81
2022-12-24T16:20:56.100Z,99991.47
2022-12-24T16:23:26.612Z,99996.66
2022-12-24T16:25:54.808Z,99994.06
2022-12-24T16:28:23.390Z,99994.06
2022-12-24T16:30:51.829Z,99983.53
2022-12-24T16:33:20.533Z,99985.31
2022-12-24T16:35:48.694Z,99983.53
2022-12-24T16:38:18.251Z,99989.56
2022-12-24T16:40:46.393Z,99987.81
2022-12-24T16:43:32.528Z,99979.28
2022-12-24T16:46:02.490Z,99974.34
2022-12-24T16:48:30.716Z,99974.41
2022-12-24T16:50:58.853Z,99980.66
2022-12-24T16:53:28.342Z,99975.78
2022-12-24T16:55:56.513Z,99988.13
2022-12-24T16:58:24.709Z,99989.28
2022-12-24T17:00:53.495Z,99991.31
2022-12-24T17:03:21.780Z,99990.56
2022-12-24T17:05:50.008Z,99999.31
2022-12-24T17:08:18.228Z,100002.19
2022-12-24T17:10:52.584Z,100009.28
2022-12-24T17:13:20.765Z,100005.28
2022-12-24T17:15:48.910Z,100001.00
2022-12-24T17:18:17.624Z,100004.44
2022-12-24T17:20:45.868Z,100008.00
2022-12-24T17:23:14.026Z,100010.59
2022-12-24T17:25:42.223Z,100008.91
2022-12-24T17:28:11.711Z,100012.41
2022-12-24T17:30:41.230Z,100015.06
2022-12-24T17:33:14.297Z,100019.41
2022-12-24T17:35:43.301Z,100012.41
2022-12-24T17:38:11.476Z,100019.09
2022-12-24T17:40:39.594Z,100015.44
2022-12-24T17:43:07.789Z,100020.50
2022-12-24T17:45:42.017Z,100021.28
2022-12-24T17:48:10.187Z,100028.88
2022-12-24T17:50:40.802Z,100021.88
2022-12-24T17:53:09.010Z,100027.00
2022-12-24T17:55:41.808Z,100026.00
2022-12-24T17:58:10.160Z,100028.41
2022-12-24T18:00:39.738Z,100033.38
2022-12-24T18:03:08.075Z,100025.56
2022-12-24T18:05:36.431Z,100026.16
2022-12-24T18:08:05.115Z,100026.03
2022-12-24T18:10:33.326Z,100017.34
2022-12-24T18:13:01.866Z,100015.69
2022-12-24T18:15:30.138Z,100013.00
2022-12-24T18:17:59.607Z,100014.69
2022-12-24T18:20:27.847Z,100018.16
2022-12-24T18:22:56.159Z,100004.47
2022-12-24T18:25:24.324Z,100010.50
2022-12-24T18:27:52.553Z,100011.34
2022-12-24T18:30:27.387Z,100019.00
2022-12-24T18:32:56.230Z,100015.50
2022-12-24T18:35:25.678Z,100023.34
2022-12-24T18:37:53.871Z,100013.28
2022-12-24T18:40:22.058Z,100006.44
2022-12-24T18:42:50.263Z,100010.03
2022-12-24T18:45:18.483Z,100007.44
2022-12-24T18:47:46.660Z,100013.44
2022-12-24T18:50:14.785Z,100014.44
2022-12-24T18:52:44.311Z,100014.59
2022-12-24T18:55:13.494Z,100012.06
2022-12-24T18:57:41.624Z,100011.25
2022-12-24T19:00:11.539Z,100008.56
2022-12-24T19:02:39.793Z,100019.59
2022-12-24T19:05:09.091Z,100020.44
2022-12-24T19:07:37.259Z,100028.19
2022-12-24T19:10:08.884Z,100028.13
2022-12-24T19:12:37.107Z,100033.38
2022-12-24T19:15:06.275Z,100036.72
2022-12-24T19:17:34.413Z,100040.16
2022-12-24T19:20:02.563Z,100045.31
2022-12-24T19:22:30.771Z,100041.84
2022-12-24T19:24:58.986Z,100049.59
2022-12-24T19:27:28.448Z,100046.19
2022-12-24T19:29:56.618Z,100048.66
2022-12-24T19:32:24.807Z,100050.38
2022-12-24T19:34:53.013Z,100058.94
2022-12-24T19:37:21.177Z,100060.56
2022-12-24T19:39:49.297Z,100059.56
2022-12-24T19:42:18.253Z,100064.59
2022-12-24T19:44:47.755Z,100056.75
2022-12-24T19:47:15.925Z,100060.94
2022-12-24T19:49:44.148Z,100059.09
2022-12-24T19:52:12.350Z,100062.63
2022-12-24T19:54:41.307Z,100063.63
2022-12-24T19:57:09.541Z,100058.44
2022-12-24T19:59:38.786Z,100065.28
2022-12-24T20:02:10.752Z,100071.28
2022-12-24T20:04:38.979Z,100073.81
2022-12-24T20:07:07.112Z,100077.31
2022-12-24T20:09:35.822Z,100080.75
2022-12-24T20:12:05.016Z,100084.16
2022-12-24T20:14:33.177Z,100088.50
2022-12-24T20:17:01.421Z,100089.31
2022-12-24T20:19:30.908Z,100100.59
2022-12-24T20:21:59.046Z,100101.50
2022-12-24T20:24:28.043Z,100098.09
2022-12-24T20:26:56.154Z,100111.09
2022-12-24T20:29:24.269Z,100103.53
2022-12-24T20:31:52.482Z,100102.00
2022-12-24T20:34:20.731Z,100091.75
2022-12-24T20:36:50.189Z,100093.56
2022-12-24T20:39:18.395Z,100091.88
2022-12-24T20:41:46.507Z,100087.69
2022-12-24T20:44:14.718Z,100081.69
2022-12-24T20:46:43.028Z,100069.88
2022-12-24T20:49:12.641Z,100083.50
2022-12-24T20:51:40.841Z,100082.69
2022-12-24T20:54:11.326Z,100086.09
2022-12-24T20:56:39.469Z,100081.84
2022-12-24T20:59:08.117Z,100086.31
2022-12-24T21:01:38.832Z,100088.19
2022-12-24T21:04:27.412Z,100081.69
2022-12-24T21:07:15.822Z,100078.66
2022-12-24T21:10:06.753Z,100078.94
2022-12-24T21:12:58.635Z,100081.72
2022-12-24T21:15:47.078Z,100095.59
2022-12-24T21:18:35.570Z,100093.72
2022-12-24T21:21:23.989Z,100084.94
2022-12-24T21:24:12.563Z,100078.78
2022-12-24T21:27:02.390Z,100077.81
2022-12-24T21:29:50.827Z,100076.84
2022-12-24T21:32:39.238Z,100075.69
2022-12-24T21:35:27.670Z,100085.16
2022-12-24T21:38:16.144Z,100071.22
2022-12-24T21:41:06.843Z,100078.94
2022-12-24T21:43:56.620Z,100071.06
2022-12-24T21:46:45.338Z,100078.84
2022-12-24T21:49:51.570Z,100071.91
2022-12-24T21:52:40.048Z,100080.03
2022-12-24T21:55:27.475Z,100068.16
2022-12-24T21:58:15.888Z,100075.16
2022-12-24T22:01:09.189Z,100067.47
2022-12-24T22:03:57.669Z,100066.06
2022-12-24T22:07:04.957Z,100051.69
2022-12-24T22:10:11.219Z,100042.47
2022-12-24T22:13:00.196Z,100040.31
2022-12-24T22:15:50.366Z,100041.22
2022-12-24T22:18:40.097Z,100047.38
2022-12-24T22:21:28.492Z,100060.97
2022-12-24T22:24:17.148Z,100054.78
2022-12-24T22:27:05.529Z,100052.94
2022-12-24T22:29:54.373Z,100059.78
2022-12-24T22:32:42.739Z,100060.66
2022-12-24T22:35:32.473Z,100071.66
2022-12-24T22:38:20.852Z,100065.50
2022-12-24T22:41:09.456Z,100067.22
2022-12-24T22:43:57.870Z,100074.19
2022-12-24T22:46:46.382Z,100073.22
2022-12-24T22:49:36.030Z,100070.41
2022-12-24T22:52:25.819Z,100071.13
2022-12-24T22:55:14.239Z,100065.13
2022-12-24T22:58:04.219Z,100062.53
2022-12-24T23:00:52.690Z,100072.78
2022-12-24T23:03:41.225Z,100079.63
2022-12-24T23:06:29.742Z,100073.69
2022-12-24T23:09:19.525Z,100071.13
2022-12-24T23:12:08.278Z,100069.38
2022-12-24T23:14:58.552Z,100065.03
2022-12-24T23:17:49.789Z,100069.31
2022-12-24T23:20:39.256Z,100060.47
2022-12-24T23:23:31.964Z,100059.41
2022-12-24T23:26:24.860Z,100053.41
2022-12-24T23:29:13.211Z,100058.66
2022-12-24T23:32:01.652Z,100056.06
2022-12-24T23:34:50.071Z,100058.66
2022-12-24T23:37:38.442Z,100058.53
2022-12-24T23:40:26.887Z,100056.69
2022-12-24T23:43:16.618Z,100060.81
2022-12-24T23:46:05.219Z,100059.91
2022-12-24T23:48:54.894Z,100058.31
2022-12-24T23:51:43.280Z,100059.13
2022-12-24T23:54:31.721Z,100050.38
2022-12-24T23:57:20.136Z,100050.31
